createdAt,value
2023-05-10T00:02:24.682Z,6.35
2023-05-10T00:05:01.625Z,7.05
2023-05-10T00:07:28.911Z,6.15
2023-05-10T00:10:02.533Z,6.53
2023-05-10T00:12:34.739Z,6.93
2023-05-10T00:15:13.172Z,6.78
2023-05-10T00:17:40.417Z,7.47
2023-05-10T00:20:18.592Z,7.50
2023-05-10T00:22:46.456Z,6.80
2023-05-10T00:25:24.150Z,7.38
2023-05-10T00:27:51.270Z,7.45
2023-05-10T00:30:34.861Z,7.30
2023-05-10T00:33:11.109Z,8.38
2023-05-10T00:35:39.624Z,8.00
2023-05-10T00:38:15.553Z,9.15
2023-05-10T00:40:43.452Z,9.32
2023-05-10T00:43:17.517Z,10.38
2023-05-10T00:45:54.741Z,10.73
2023-05-10T00:48:29.499Z,11.05
2023-05-10T00:50:57.037Z,11.00
2023-05-10T00:53:34.569Z,11.60
2023-05-10T00:56:09.428Z,12.15
2023-05-10T00:58:37.047Z,14.00
2023-05-10T01:01:13.062Z,12.77
2023-05-10T01:03:53.054Z,12.90
2023-05-10T01:06:20.574Z,13.38
2023-05-10T01:08:59.543Z,13.40
2023-05-10T01:11:33.546Z,12.20
2023-05-10T01:14:07.108Z,12.25
2023-05-10T01:16:45.402Z,12.68
2023-05-10T01:19:29.524Z,12.50
2023-05-10T01:22:09.935Z,12.93
2023-05-10T01:25:20.975Z,12.35
2023-05-10T01:28:07.495Z,11.23
2023-05-10T01:31:04.544Z,13.77
2023-05-10T01:33:47.586Z,13.82
2023-05-10T01:36:41.865Z,12.35
2023-05-10T01:39:21.761Z,12.13
2023-05-10T01:42:11.484Z,11.95
2023-05-10T01:45:12.163Z,13.63
2023-05-10T01:48:15.921Z,13.35
2023-05-10T01:50:47.965Z,14.98
2023-05-10T01:53:26.612Z,13.32
2023-05-10T01:56:03.515Z,13.02
2023-05-10T01:58:40.455Z,12.80
2023-05-10T02:01:16.502Z,12.95
2023-05-10T02:03:51.749Z,14.18
2023-05-10T02:06:33.475Z,12.55
2023-05-10T02:09:13.536Z,12.85
2023-05-10T02:11:53.412Z,13.45
2023-05-10T02:14:21.817Z,13.27
2023-05-10T02:16:58.669Z,13.90
2023-05-10T02:19:33.353Z,13.98
2023-05-10T02:22:11.699Z,12.98
2023-05-10T02:24:49.561Z,14.60
2023-05-10T02:27:24.539Z,17.40
2023-05-10T02:29:58.650Z,13.63
2023-05-10T02:32:37.665Z,14.52
2023-05-10T02:35:15.947Z,13.63
2023-05-10T02:37:51.535Z,14.85
2023-05-10T02:40:28.665Z,15.20
2023-05-10T02:43:04.552Z,15.02
2023-05-10T02:46:00.207Z,15.35
2023-05-10T02:48:39.458Z,14.93
2023-05-10T02:51:15.782Z,14.75
2023-05-10T02:53:57.450Z,16.35
2023-05-10T02:56:40.629Z,16.27
2023-05-10T02:59:14.613Z,18.50
2023-05-10T03:01:50.664Z,16.13
2023-05-10T03:04:24.679Z,16.30
2023-05-10T03:07:01.671Z,19.38
2023-05-10T03:09:29.565Z,17.20
2023-05-10T03:12:35.666Z,15.80
2023-05-10T03:15:29.492Z,16.75
2023-05-10T03:18:21.300Z,18.10
2023-05-10T03:21:12.639Z,16.98
2023-05-10T03:23:58.458Z,18.23
2023-05-10T03:26:34.621Z,20.15
2023-05-10T03:29:12.095Z,21.13
2023-05-10T03:31:49.815Z,20.73
2023-05-10T03:34:24.586Z,20.90
2023-05-10T03:36:52.042Z,21.40
2023-05-10T03:39:26.563Z,24.60
2023-05-10T03:41:57.149Z,25.33
2023-05-10T03:44:36.463Z,22.98
2023-05-10T03:47:23.689Z,26.45
2023-05-10T03:49:57.607Z,23.50
2023-05-10T03:52:25.110Z,26.92
2023-05-10T03:54:58.652Z,30.40
2023-05-10T03:57:32.529Z,29.05
2023-05-10T04:00:00.071Z,30.75
2023-05-10T04:02:38.526Z,32.92
2023-05-10T04:05:12.752Z,33.22
2023-05-10T04:07:49.599Z,33.33
2023-05-10T04:10:17.944Z,37.38
2023-05-10T04:12:51.738Z,35.05
2023-05-10T04:15:19.322Z,36.88
2023-05-10T04:17:56.654Z,37.22
2023-05-10T04:20:24.327Z,38.17
2023-05-10T04:22:54.582Z,42.63
2023-05-10T04:25:29.672Z,39.58
2023-05-10T04:27:59.392Z,39.75
2023-05-10T04:30:33.758Z,40.53
2023-05-10T04:33:09.148Z,41.58
2023-05-10T04:35:36.955Z,44.85
2023-05-10T04:38:17.451Z,47.35
2023-05-10T04:40:51.657Z,49.10
2023-05-10T04:43:27.988Z,51.83
2023-05-10T04:46:15.680Z,53.95
2023-05-10T04:48:54.743Z,52.22
2023-05-10T04:51:24.424Z,55.63
2023-05-10T04:54:06.238Z,54.38
2023-05-10T04:57:08.970Z,57.45
2023-05-10T04:59:50.919Z,59.83
2023-05-10T05:02:23.512Z,60.50
2023-05-10T05:04:59.374Z,58.25
2023-05-10T05:07:42.725Z,66.40
2023-05-10T05:10:15.297Z,64.53
2023-05-10T05:12:52.439Z,61.88
2023-05-10T05:15:28.777Z,67.65
2023-05-10T05:18:05.878Z,71.55
2023-05-10T05:20:42.914Z,71.28
2023-05-10T05:23:16.882Z,71.10
2023-05-10T05:25:52.669Z,73.90
2023-05-10T05:28:23.577Z,75.20
2023-05-10T05:31:01.060Z,81.93
2023-05-10T05:33:34.681Z,74.10
2023-05-10T05:36:07.313Z,74.68
2023-05-10T05:38:42.742Z,77.05
2023-05-10T05:41:16.726Z,76.25
2023-05-10T05:43:50.693Z,76.20
2023-05-10T05:46:27.293Z,77.70
2023-05-10T05:49:05.510Z,83.20
2023-05-10T05:51:41.762Z,78.78
2023-05-10T05:54:16.571Z,80.35
2023-05-10T05:56:46.510Z,81.95
2023-05-10T05:59:16.397Z,82.05
2023-05-10T06:02:02.448Z,76.95
2023-05-10T06:04:36.654Z,80.60
2023-05-10T06:07:06.729Z,86.57
2023-05-10T06:09:40.729Z,84.80
2023-05-10T06:12:10.203Z,80.82
2023-05-10T06:14:44.679Z,83.80
2023-05-10T06:17:12.442Z,79.70
2023-05-10T06:19:48.317Z,85.00
2023-05-10T06:22:35.213Z,77.10
2023-05-10T06:25:03.835Z,76.55
2023-05-10T06:27:37.602Z,76.57
2023-05-10T06:30:13.385Z,76.15
2023-05-10T06:32:51.754Z,72.03
2023-05-10T06:35:20.181Z,79.40
2023-05-10T06:37:54.696Z,71.60
2023-05-10T06:40:22.468Z,70.28
2023-05-10T06:42:56.659Z,69.32
2023-05-10T06:45:30.961Z,71.85
2023-05-10T06:48:11.905Z,65.65
2023-05-10T06:50:41.596Z,65.22
2023-05-10T06:53:08.954Z,68.70
2023-05-10T06:55:42.785Z,70.07
2023-05-10T06:58:12.660Z,68.95
2023-05-10T07:00:48.752Z,61.72
2023-05-10T07:03:21.949Z,64.57
2023-05-10T07:05:58.653Z,63.50
2023-05-10T07:08:25.899Z,64.82
2023-05-10T07:11:02.654Z,58.97
2023-05-10T07:13:29.911Z,60.40
2023-05-10T07:16:06.724Z,60.42
2023-05-10T07:18:34.366Z,61.22
2023-05-10T07:21:10.708Z,67.10
2023-05-10T07:23:38.030Z,68.50
2023-05-10T07:26:11.761Z,63.53
2023-05-10T07:28:52.334Z,63.63
2023-05-10T07:31:22.766Z,63.08
2023-05-10T07:33:57.932Z,62.70
2023-05-10T07:36:24.808Z,65.20
2023-05-10T07:38:58.682Z,70.20
2023-05-10T07:41:25.675Z,61.85
2023-05-10T07:44:01.920Z,61.28
2023-05-10T07:46:38.386Z,51.35
2023-05-10T07:49:15.451Z,55.55
2023-05-10T07:51:43.901Z,51.95
2023-05-10T07:54:17.682Z,50.13
2023-05-10T07:56:48.616Z,53.78
2023-05-10T07:59:25.575Z,50.33
2023-05-10T08:01:53.017Z,52.25
2023-05-10T08:04:26.846Z,50.22
2023-05-10T08:06:54.025Z,48.30
2023-05-10T08:09:31.700Z,52.17
2023-05-10T08:12:02.363Z,52.85
2023-05-10T08:14:37.624Z,51.17
2023-05-10T08:17:05.311Z,49.88
2023-05-10T08:19:39.664Z,49.10
2023-05-10T08:22:13.700Z,51.72
2023-05-10T08:24:49.753Z,51.05
2023-05-10T08:27:23.645Z,51.80
2023-05-10T08:29:51.166Z,50.53
2023-05-10T08:32:25.788Z,56.05
2023-05-10T08:34:53.027Z,52.40
2023-05-10T08:37:20.337Z,53.15
2023-05-10T08:39:55.794Z,58.95
2023-05-10T08:42:35.727Z,59.75
2023-05-10T08:45:18.013Z,59.42
2023-05-10T08:47:55.704Z,64.22
2023-05-10T08:50:35.896Z,59.22
2023-05-10T08:53:15.637Z,61.95
2023-05-10T08:55:54.821Z,64.05
2023-05-10T08:58:27.316Z,58.28
2023-05-10T09:01:03.708Z,63.63
2023-05-10T09:03:32.318Z,60.90
2023-05-10T09:06:05.793Z,65.47
2023-05-10T09:08:39.787Z,62.00
2023-05-10T09:11:16.754Z,70.18
2023-05-10T09:13:52.118Z,60.10
2023-05-10T09:16:25.776Z,60.38
2023-05-10T09:18:53.069Z,58.05
2023-05-10T09:21:34.837Z,59.97
2023-05-10T09:24:08.750Z,54.95
2023-05-10T09:26:43.734Z,60.22
2023-05-10T09:29:17.771Z,56.33
2023-05-10T09:31:54.771Z,52.95
2023-05-10T09:34:42.485Z,48.60
2023-05-10T09:37:18.261Z,48.13
2023-05-10T09:39:45.684Z,34.25
2023-05-10T09:42:19.779Z,31.05
2023-05-10T09:44:47.765Z,27.42
2023-05-10T09:47:27.710Z,22.40
2023-05-10T09:50:10.844Z,24.42
2023-05-10T09:52:55.768Z,22.60
2023-05-10T09:55:24.517Z,21.77
2023-05-10T09:58:07.771Z,22.20
2023-05-10T10:00:45.900Z,29.65
2023-05-10T10:03:30.365Z,25.25
2023-05-10T10:05:58.073Z,19.75
2023-05-10T10:08:32.707Z,20.60
2023-05-10T10:11:06.627Z,19.58
2023-05-10T10:13:33.685Z,21.35
2023-05-10T10:16:07.907Z,19.08
2023-05-10T10:18:37.377Z,19.27
2023-05-10T10:21:15.784Z,17.55
2023-05-10T10:23:48.162Z,18.63
2023-05-10T10:26:23.688Z,17.90
2023-05-10T10:29:13.343Z,15.82
2023-05-10T10:31:58.063Z,15.00
2023-05-10T10:34:42.465Z,15.40
2023-05-10T10:37:09.476Z,14.50
2023-05-10T10:39:44.659Z,16.88
2023-05-10T10:42:43.841Z,15.73
2023-05-10T10:45:15.522Z,15.40
2023-05-10T10:48:00.757Z,13.82
2023-05-10T10:50:50.450Z,14.68
2023-05-10T10:53:24.884Z,13.23
2023-05-10T10:56:26.299Z,15.98
2023-05-10T10:58:54.642Z,13.35
2023-05-10T11:01:28.907Z,12.77
2023-05-10T11:04:01.356Z,13.75
2023-05-10T11:06:41.763Z,12.45
2023-05-10T11:09:09.190Z,12.77
2023-05-10T11:12:07.113Z,10.15
2023-05-10T11:14:40.892Z,11.27
2023-05-10T11:17:28.864Z,10.70
2023-05-10T11:20:22.651Z,19.00
2023-05-10T11:22:53.096Z,12.27
2023-05-10T11:25:36.784Z,8.70
2023-05-10T11:28:05.782Z,13.75
2023-05-10T11:30:38.778Z,10.25
2023-05-10T11:33:06.858Z,8.50
2023-05-10T11:35:50.062Z,8.52
2023-05-10T11:38:17.100Z,7.82
2023-05-10T11:40:51.754Z,7.60
2023-05-10T11:43:18.686Z,11.18
2023-05-10T11:45:59.797Z,10.05
2023-05-10T11:48:33.775Z,10.35
2023-05-10T11:51:09.827Z,12.57
2023-05-10T11:53:36.761Z,11.13
2023-05-10T11:56:14.838Z,12.48
2023-05-10T11:58:47.733Z,10.00
2023-05-10T12:01:14.698Z,10.82
2023-05-10T12:03:47.817Z,11.40
2023-05-10T12:06:14.826Z,13.50
2023-05-10T12:08:55.707Z,12.70
2023-05-10T12:11:27.056Z,14.10
2023-05-10T12:14:01.764Z,12.43
2023-05-10T12:16:31.250Z,12.65
2023-05-10T12:19:06.800Z,12.68
2023-05-10T12:21:34.625Z,14.70
2023-05-10T12:24:10.890Z,14.68
2023-05-10T12:29:29.784Z,10.73
2023-05-10T12:31:59.250Z,12.25
2023-05-10T12:34:39.858Z,9.77
2023-05-10T12:37:06.795Z,11.23
2023-05-10T12:39:50.702Z,10.93
2023-05-10T12:42:26.283Z,11.45
2023-05-10T12:45:04.723Z,10.70
2023-05-10T12:47:39.496Z,11.35
2023-05-10T12:50:15.187Z,12.90
2023-05-10T12:52:48.716Z,11.00
2023-05-10T12:55:18.341Z,12.18
2023-05-10T12:57:51.707Z,9.60
2023-05-10T13:00:19.043Z,8.98
2023-05-10T13:02:52.888Z,8.45
2023-05-10T13:05:20.005Z,9.02
2023-05-10T13:07:53.850Z,9.90
2023-05-10T13:10:20.733Z,8.60
2023-05-10T13:12:53.710Z,9.52
2023-05-10T13:15:21.112Z,8.85
2023-05-10T13:17:54.749Z,7.95
2023-05-10T13:20:22.075Z,9.07
2023-05-10T13:22:55.728Z,8.15
2023-05-10T13:25:22.668Z,7.85
2023-05-10T13:27:55.779Z,10.93
2023-05-10T13:30:31.770Z,8.55
2023-05-10T13:33:04.784Z,8.82
2023-05-10T13:35:37.802Z,10.50
2023-05-10T13:38:04.662Z,11.30
2023-05-10T13:40:37.879Z,9.68
2023-05-10T13:43:04.685Z,9.45
2023-05-10T13:45:37.724Z,7.43
2023-05-10T13:48:17.780Z,6.75
2023-05-10T13:50:51.848Z,7.57
2023-05-10T13:53:18.685Z,7.13
2023-05-10T13:55:51.889Z,7.95
2023-05-10T13:58:19.228Z,8.20
2023-05-10T14:00:46.735Z,6.45
2023-05-10T14:03:19.936Z,6.53
2023-05-10T14:05:53.831Z,5.95
2023-05-10T14:11:14.764Z,4.60
2023-05-10T14:13:41.659Z,5.47
2023-05-10T14:16:14.864Z,4.70
2023-05-10T14:18:41.852Z,5.38
2023-05-10T14:21:09.033Z,4.90
2023-05-10T14:23:42.760Z,5.85
2023-05-10T14:26:15.942Z,6.15
2023-05-10T14:28:49.825Z,5.07
2023-05-10T14:31:18.125Z,5.97
2023-05-10T14:33:52.565Z,5.32
2023-05-10T14:36:32.804Z,6.38
2023-05-10T14:38:59.837Z,5.43
2023-05-10T14:41:32.760Z,5.70
2023-05-10T14:43:59.580Z,6.05
2023-05-10T14:46:32.828Z,8.05
2023-05-10T14:49:12.833Z,7.25
2023-05-10T14:51:39.951Z,7.00
2023-05-10T14:54:13.804Z,6.75
2023-05-10T14:56:48.780Z,8.77
2023-05-10T14:59:15.618Z,7.38
2023-05-10T15:01:50.333Z,8.10
2023-05-10T15:04:18.099Z,6.47
2023-05-10T15:06:51.935Z,9.48
2023-05-10T15:09:18.965Z,8.05
2023-05-10T15:11:52.787Z,9.93
2023-05-10T15:14:25.889Z,9.68
2023-05-10T15:16:55.569Z,7.88
2023-05-10T15:19:31.512Z,7.90
2023-05-10T15:22:04.888Z,7.13
2023-05-10T15:24:47.839Z,7.32
2023-05-10T15:27:14.800Z,7.30
2023-05-10T15:29:47.907Z,8.57
2023-05-10T15:32:14.786Z,8.90
2023-05-10T15:34:48.847Z,7.45
2023-05-10T15:37:15.692Z,7.97
2023-05-10T15:39:48.918Z,8.48
2023-05-10T15:42:21.898Z,8.30
2023-05-10T15:44:51.370Z,7.85
2023-05-10T15:47:24.810Z,8.52
2023-05-10T15:49:57.823Z,8.00
2023-05-10T15:52:30.842Z,8.23
2023-05-10T15:54:57.714Z,7.75
2023-05-10T15:57:35.650Z,9.45
2023-05-10T16:00:04.181Z,8.13
2023-05-10T16:02:39.171Z,9.38
2023-05-10T16:05:13.259Z,7.10
2023-05-10T16:07:48.856Z,7.47
2023-05-10T16:10:15.718Z,9.07
2023-05-10T16:12:48.930Z,5.90
2023-05-10T16:15:16.451Z,6.43
2023-05-10T16:17:50.367Z,7.40
2023-05-10T16:20:17.935Z,6.78
2023-05-10T16:22:50.894Z,7.13
2023-05-10T16:25:25.145Z,6.97
2023-05-10T16:27:52.004Z,7.22
2023-05-10T16:30:25.981Z,6.38
2023-05-10T16:32:53.030Z,6.53
2023-05-10T16:35:27.017Z,6.53
2023-05-10T16:37:59.894Z,8.68
2023-05-10T16:40:32.857Z,7.80
2023-05-10T16:42:59.702Z,9.13
2023-05-10T16:45:33.948Z,9.15
2023-05-10T16:48:08.241Z,8.20
2023-05-10T16:50:42.151Z,8.07
2023-05-10T16:53:15.946Z,8.30
2023-05-10T16:55:48.924Z,8.15
2023-05-10T16:58:21.941Z,6.82
2023-05-10T17:00:48.817Z,7.70
2023-05-10T17:03:22.053Z,8.07
2023-05-10T17:05:49.134Z,7.57
2023-05-10T17:08:22.842Z,7.45
2023-05-10T17:10:49.770Z,8.23
2023-05-10T17:13:23.911Z,7.68
2023-05-10T17:15:51.004Z,8.10
2023-05-10T17:18:24.963Z,8.27
2023-05-10T17:20:51.801Z,7.85
2023-05-10T17:23:24.992Z,7.65
2023-05-10T17:25:51.731Z,7.63
2023-05-10T17:28:25.050Z,7.88
2023-05-10T17:31:08.035Z,8.07
2023-05-10T17:33:35.200Z,8.63
2023-05-10T17:36:08.947Z,9.57
2023-05-10T17:38:36.708Z,11.18
2023-05-10T17:41:10.882Z,8.90
2023-05-10T17:43:38.012Z,8.15
2023-05-10T17:46:11.107Z,9.45
2023-05-10T17:48:46.729Z,11.73
2023-05-10T17:51:20.945Z,8.73
2023-05-10T17:53:56.910Z,10.05
2023-05-10T17:56:30.947Z,9.00
2023-05-10T17:58:57.857Z,8.65
2023-05-10T18:01:31.049Z,9.30
2023-05-10T18:04:04.945Z,12.57
2023-05-10T18:06:42.108Z,8.90
2023-05-10T18:09:14.948Z,9.88
2023-05-10T18:11:50.799Z,11.25
2023-05-10T18:14:39.038Z,8.35
2023-05-10T18:17:09.875Z,12.27
2023-05-10T18:19:45.535Z,9.27
2023-05-10T18:22:12.706Z,8.75
2023-05-10T18:24:46.091Z,10.10
2023-05-10T18:27:20.115Z,10.30
2023-05-10T18:29:49.988Z,10.80
2023-05-10T18:32:25.946Z,9.52
2023-05-10T18:35:01.222Z,10.40
2023-05-10T18:37:34.191Z,10.77
2023-05-10T18:40:14.943Z,13.45
2023-05-10T18:42:51.018Z,10.77
2023-05-10T18:45:23.749Z,10.98
2023-05-10T18:47:57.135Z,12.23
2023-05-10T18:50:27.165Z,10.32
2023-05-10T18:53:06.665Z,10.00
2023-05-10T18:55:36.096Z,9.15
2023-05-10T18:58:10.025Z,10.18
2023-05-10T19:00:42.678Z,10.07
2023-05-10T19:03:23.024Z,10.98
2023-05-10T19:05:50.298Z,10.93
2023-05-10T19:08:26.170Z,10.25
2023-05-10T19:10:53.110Z,11.27
2023-05-10T19:13:28.415Z,10.48
2023-05-10T19:16:23.156Z,9.07
2023-05-10T19:18:57.762Z,9.80
2023-05-10T19:21:32.495Z,10.82
2023-05-10T19:24:01.593Z,10.65
2023-05-10T19:26:36.326Z,11.13
2023-05-10T19:29:10.092Z,11.52
2023-05-10T19:31:46.800Z,11.40
2023-05-10T19:34:22.773Z,11.48
2023-05-10T19:36:53.161Z,9.88
2023-05-10T19:39:28.358Z,11.13
2023-05-10T19:41:55.595Z,10.60
2023-05-10T19:44:33.043Z,9.98
2023-05-10T19:47:08.038Z,10.05
2023-05-10T19:49:48.218Z,9.55
2023-05-10T19:52:17.495Z,8.93
2023-05-10T19:54:54.848Z,10.10
2023-05-10T19:57:22.307Z,9.65
2023-05-10T19:59:56.149Z,10.13
2023-05-10T20:02:32.781Z,10.93
2023-05-10T20:05:07.313Z,11.43
2023-05-10T20:07:36.561Z,10.93
2023-05-10T20:10:13.227Z,12.80
2023-05-10T20:12:50.060Z,13.07
2023-05-10T20:15:28.170Z,11.40
2023-05-10T20:18:07.727Z,11.18
2023-05-10T20:20:35.231Z,10.32
2023-05-10T20:23:09.171Z,11.48
2023-05-10T20:25:40.610Z,10.70
2023-05-10T20:28:15.064Z,11.55
2023-05-10T20:30:45.268Z,10.18
2023-05-10T20:33:22.163Z,9.70
2023-05-10T20:35:57.218Z,11.38
2023-05-10T20:38:29.756Z,12.02
2023-05-10T20:41:05.998Z,14.45
2023-05-10T20:43:40.166Z,11.85
2023-05-10T20:46:18.292Z,10.32
2023-05-10T20:48:55.174Z,11.98
2023-05-10T20:51:31.432Z,12.38
2023-05-10T20:54:05.174Z,12.30
2023-05-10T20:56:35.307Z,13.25
2023-05-10T20:59:09.061Z,15.32
2023-05-10T21:01:38.426Z,14.13
2023-05-10T21:04:12.013Z,12.60
2023-05-10T21:06:41.905Z,14.30
2023-05-10T21:09:18.172Z,13.55
2023-05-10T21:11:48.342Z,12.25
2023-05-10T21:14:23.511Z,12.65
2023-05-10T21:16:51.631Z,12.93
2023-05-10T21:19:26.123Z,13.10
2023-05-10T21:22:02.206Z,14.63
2023-05-10T21:24:34.714Z,14.20
2023-05-10T21:27:10.155Z,12.18
2023-05-10T21:29:47.247Z,13.25
2023-05-10T21:32:27.177Z,14.13
2023-05-10T21:34:56.469Z,12.68
2023-05-10T21:37:30.179Z,12.40
2023-05-10T21:39:57.673Z,13.40
2023-05-10T21:42:31.130Z,16.80
2023-05-10T21:44:58.428Z,12.88
2023-05-10T21:47:32.179Z,15.27
2023-05-10T21:50:13.515Z,15.27
2023-05-10T21:52:47.161Z,11.93
2023-05-10T21:55:14.820Z,12.57
2023-05-10T21:57:49.197Z,15.68
2023-05-10T22:00:20.026Z,14.05
2023-05-10T22:02:54.412Z,13.95
2023-05-10T22:05:26.969Z,11.85
2023-05-10T22:08:01.231Z,15.95
2023-05-10T22:10:35.249Z,14.65
2023-05-10T22:13:09.181Z,14.70
2023-05-10T22:15:43.166Z,16.98
2023-05-10T22:18:10.717Z,14.00
2023-05-10T22:20:44.135Z,14.48
2023-05-10T22:23:13.904Z,13.50
2023-05-10T22:25:50.869Z,14.15
2023-05-10T22:28:18.108Z,14.07
2023-05-10T22:30:52.320Z,13.98
2023-05-10T22:33:19.609Z,15.15
2023-05-10T22:35:55.235Z,13.35
2023-05-10T22:38:28.722Z,14.50
2023-05-10T22:41:08.201Z,14.00
2023-05-10T22:43:35.779Z,13.63
2023-05-10T22:46:12.189Z,14.75
2023-05-10T22:48:52.839Z,15.77
2023-05-10T22:51:34.290Z,14.95
2023-05-10T22:54:01.585Z,15.93
2023-05-10T22:56:38.118Z,15.55
2023-05-10T22:59:08.421Z,17.77
2023-05-10T23:01:45.455Z,16.92
2023-05-10T23:04:12.828Z,20.38
2023-05-10T23:06:47.185Z,15.95
2023-05-10T23:09:21.157Z,15.80
2023-05-10T23:11:48.362Z,14.32
2023-05-10T23:14:24.894Z,16.48
2023-05-10T23:16:55.355Z,17.20
2023-05-10T23:19:29.269Z,14.75
2023-05-10T23:21:56.808Z,17.45
2023-05-10T23:24:33.202Z,16.15
2023-05-10T23:27:00.707Z,18.75
2023-05-10T23:29:39.229Z,16.85
2023-05-10T23:32:06.824Z,15.40
2023-05-10T23:34:40.192Z,17.60
2023-05-10T23:37:10.521Z,17.02
2023-05-10T23:39:48.778Z,14.43
2023-05-10T23:42:16.081Z,16.38
2023-05-10T23:44:50.212Z,16.98
2023-05-10T23:47:37.287Z,14.68
2023-05-10T23:50:12.123Z,15.65
2023-05-10T23:52:46.303Z,18.67
2023-05-10T23:55:16.898Z,17.25
2023-05-10T23:57:51.378Z,19.52
